Time;durP1;ratioP1;P1;durP2;ratioP2;P2;SDS_P1;SDS_P2;PMS_P1;PMS_P2;Temp;Humidity;BMP_temperature;BMP_pressure;BME280_temperature;BME280_humidity;BME280_pressure;Samples;Min_cycle;Max_cycle;Signal;HPM_P1;HPM_P2
2021/07/12 00:02:17;;;;;;;9.38;8.18;;;16.90;99.90;;;;;;4971900;28;20047;-85
2021/07/12 00:04:44;;;;;;;9.95;8.70;;;16.90;99.90;;;;;;4971691;28;20078;-85
2021/07/12 00:07:11;;;;;;;10.10;8.98;;;16.90;99.90;;;;;;4969124;28;20061;-85
2021/07/12 00:09:38;;;;;;;10.45;8.18;;;16.90;99.90;;;;;;4987816;28;20053;-85
2021/07/12 00:12:05;;;;;;;10.10;9.10;;;16.90;99.90;;;;;;4970413;28;20474;-85
2021/07/12 00:14:32;;;;;;;9.93;8.93;;;16.90;99.90;;;;;;4972108;28;20547;-85
2021/07/12 00:16:59;;;;;;;9.98;8.80;;;16.80;99.90;;;;;;4958428;28;20062;-85
2021/07/12 00:19:26;;;;;;;9.55;8.00;;;16.80;99.90;;;;;;4984370;28;20403;-85
2021/07/12 00:21:53;;;;;;;9.73;8.23;;;16.80;99.90;;;;;;4985242;28;20058;-85
2021/07/12 00:24:20;;;;;;;9.88;8.95;;;16.80;99.90;;;;;;4970373;28;20046;-85
2021/07/12 00:26:48;;;;;;;11.68;9.10;;;16.80;99.90;;;;;;4966754;28;20047;-85
2021/07/12 00:29:15;;;;;;;9.80;8.00;;;16.80;99.90;;;;;;4969361;28;20063;-85
2021/07/12 00:31:42;;;;;;;10.48;9.45;;;16.80;99.90;;;;;;4965254;28;20516;-85
2021/07/12 00:34:09;;;;;;;12.13;9.68;;;16.80;99.90;;;;;;4968128;28;20531;-84
2021/07/12 00:36:36;;;;;;;10.85;9.48;;;16.70;99.90;;;;;;4966627;28;20129;-85
2021/07/12 00:39:06;;;;;;;10.80;9.68;;;16.70;99.90;;;;;;4967883;28;20504;-85
2021/07/12 00:41:35;;;;;;;9.32;8.45;;;16.70;99.90;;;;;;4966917;28;20672;-85
2021/07/12 00:44:04;;;;;;;12.40;10.73;;;16.70;99.90;;;;;;4981281;28;20039;-85
2021/07/12 00:46:32;;;;;;;14.82;12.60;;;16.70;99.90;;;;;;4951826;28;20054;-85
2021/07/12 00:48:59;;;;;;;11.00;9.48;;;16.70;99.90;;;;;;4968650;28;20113;-85
2021/07/12 00:51:26;;;;;;;11.60;9.70;;;16.70;99.90;;;;;;4981082;28;20118;-85
2021/07/12 00:53:54;;;;;;;12.63;11.32;;;16.70;99.90;;;;;;4963855;28;20043;-85
2021/07/12 00:56:28;;;;;;;11.40;10.05;;;16.70;99.90;;;;;;4949792;28;20054;-84
2021/07/12 00:58:57;;;;;;;10.32;9.27;;;16.70;99.90;;;;;;4956199;28;20046;-84
2021/07/12 01:01:24;;;;;;;10.77;9.68;;;16.70;99.90;;;;;;4981152;28;20043;-85
2021/07/12 01:03:52;;;;;;;15.35;11.32;;;16.60;99.90;;;;;;4981400;28;20074;-85
2021/07/12 01:06:20;;;;;;;13.25;12.00;;;16.60;99.90;;;;;;4962549;28;20154;-85
2021/07/12 01:08:48;;;;;;;13.90;12.48;;;16.60;99.90;;;;;;4951294;28;20043;-85
2021/07/12 01:12:03;;;;;;;12.68;11.48;;;16.50;99.90;;;;;;4965704;28;20069;-85
2021/07/12 01:14:40;;;;;;;11.35;10.02;;;16.50;99.90;;;;;;4965144;28;20053;-84
2021/07/12 01:17:59;;;;;;;10.13;9.13;;;16.50;99.90;;;;;;4965048;28;20099;-84
2021/07/12 01:20:46;;;;;;;12.23;9.50;;;16.40;99.90;;;;;;4980010;28;20038;-85
2021/07/12 01:23:55;;;;;;;10.90;9.75;;;16.40;99.90;;;;;;4964811;28;20051;-85
2021/07/12 01:26:55;;;;;;;12.32;10.10;;;16.30;99.90;;;;;;4923558;28;20070;-84
2021/07/12 01:30:04;;;;;;;10.98;9.85;;;16.20;99.90;;;;;;4938136;28;20190;-85
2021/07/12 01:32:41;;;;;;;8.77;7.63;;;16.20;99.90;;;;;;4965625;28;20077;-85
2021/07/12 01:35:30;;;;;;;11.85;9.95;;;16.20;99.90;;;;;;4955271;28;20066;-85
2021/07/12 01:38:25;;;;;;;14.20;10.52;;;16.20;99.90;;;;;;4976733;28;20046;-85
2021/07/12 01:41:30;;;;;;;14.57;11.10;;;16.20;99.90;;;;;;4930495;28;20133;-85
2021/07/12 01:44:22;;;;;;;12.82;10.48;;;16.10;99.90;;;;;;4955954;28;20078;-84
2021/07/12 01:47:03;;;;;;;14.48;11.52;;;16.10;99.90;;;;;;4949927;28;20050;-85
2021/07/12 01:50:15;;;;;;;14.17;10.23;;;16.10;99.90;;;;;;4962054;28;20050;-84
2021/07/12 01:52:55;;;;;;;9.73;8.77;;;16.10;99.90;;;;;;4980318;28;20316;-85
2021/07/12 01:55:28;;;;;;;12.43;10.85;;;16.00;99.90;;;;;;4977100;28;20046;-84
2021/07/12 01:58:02;;;;;;;10.80;9.63;;;16.00;99.90;;;;;;4970075;28;20042;-85
2021/07/12 02:00:31;;;;;;;11.20;10.20;;;16.00;99.90;;;;;;4965959;28;20039;-85
2021/07/12 02:03:03;;;;;;;11.63;9.55;;;16.00;99.90;;;;;;4937420;28;20505;-84
2021/07/12 02:05:35;;;;;;;17.15;10.88;;;16.00;99.90;;;;;;4965935;28;20054;-84
2021/07/12 02:08:08;;;;;;;11.70;9.27;;;16.00;99.90;;;;;;4948869;28;21715;-85
2021/07/12 02:10:40;;;;;;;11.00;9.75;;;16.00;99.90;;;;;;4984341;28;20050;-84
2021/07/12 02:13:12;;;;;;;11.80;10.60;;;16.00;99.90;;;;;;4982504;28;20050;-84
2021/07/12 02:15:54;;;;;;;16.30;11.52;;;16.00;99.90;;;;;;4969350;28;20054;-84
2021/07/12 02:18:32;;;;;;;12.82;11.50;;;16.00;99.90;;;;;;4964085;28;20050;-84
2021/07/12 02:21:17;;;;;;;12.88;11.20;;;16.00;99.90;;;;;;4942668;28;20051;-84
2021/07/12 02:23:53;;;;;;;12.98;10.50;;;16.00;99.90;;;;;;4965477;28;20475;-84
2021/07/12 02:26:22;;;;;;;14.95;12.63;;;16.00;99.90;;;;;;4954708;28;20073;-84
2021/07/12 02:28:51;;;;;;;14.02;11.23;;;16.00;99.90;;;;;;4967497;28;20072;-84
2021/07/12 02:31:20;;;;;;;11.90;10.73;;;16.00;99.90;;;;;;4951939;28;20054;-84
2021/07/12 02:33:51;;;;;;;12.27;11.05;;;16.00;99.90;;;;;;4980005;28;20039;-84
2021/07/12 02:36:20;;;;;;;10.30;9.23;;;15.90;99.90;;;;;;4969522;28;20093;-84
2021/07/12 02:38:51;;;;;;;12.05;10.77;;;15.90;99.90;;;;;;4983696;28;20504;-85
2021/07/12 02:41:20;;;;;;;13.02;11.68;;;15.90;99.90;;;;;;4968437;28;20476;-84
2021/07/12 02:43:49;;;;;;;14.10;10.50;;;16.00;99.90;;;;;;4968957;28;20062;-85
2021/07/12 02:46:22;;;;;;;14.20;12.07;;;16.00;99.90;;;;;;4951097;28;20047;-84
2021/07/12 02:48:51;;;;;;;13.45;12.05;;;16.00;99.90;;;;;;4951311;28;20082;-85
2021/07/12 02:51:23;;;;;;;14.50;10.93;;;16.00;99.90;;;;;;4950208;28;20046;-85
2021/07/12 02:53:59;;;;;;;11.18;10.13;;;16.00;99.90;;;;;;4934646;28;20125;-85
2021/07/12 02:56:26;;;;;;;13.38;11.07;;;16.00;99.90;;;;;;4965666;28;20045;-85
2021/07/12 02:58:53;;;;;;;13.02;11.52;;;16.10;99.90;;;;;;4947017;28;20138;-85
2021/07/12 03:01:22;;;;;;;13.77;12.32;;;16.10;99.90;;;;;;4968483;28;20207;-85
2021/07/12 03:03:49;;;;;;;13.82;12.30;;;16.10;99.90;;;;;;4967855;28;20050;-85
2021/07/12 03:06:19;;;;;;;14.68;11.75;;;16.10;99.90;;;;;;4947511;28;20066;-85
2021/07/12 03:08:57;;;;;;;12.80;10.93;;;16.20;99.90;;;;;;4945778;28;20089;-85
2021/07/12 03:11:30;;;;;;;11.35;10.13;;;16.20;99.90;;;;;;4966629;28;20102;-85
2021/07/12 03:14:20;;;;;;;11.07;9.98;;;16.10;99.90;;;;;;4949386;28;20058;-85
2021/07/12 03:16:50;;;;;;;10.90;9.80;;;16.20;99.90;;;;;;4967472;28;20046;-85
2021/07/12 03:19:28;;;;;;;15.13;12.70;;;16.10;99.90;;;;;;4966657;28;20039;-85
2021/07/12 03:21:58;;;;;;;14.38;12.98;;;16.20;99.90;;;;;;4975300;28;20532;-85
2021/07/12 03:24:31;;;;;;;15.70;12.77;;;16.20;99.90;;;;;;4968698;28;20054;-85
2021/07/12 03:26:59;;;;;;;15.73;13.65;;;16.30;99.90;;;;;;4966639;28;20731;-85
2021/07/12 03:29:30;;;;;;;14.77;13.07;;;16.40;99.90;;;;;;4965356;28;20440;-85
2021/07/12 03:31:59;;;;;;;13.43;11.68;;;16.40;99.90;;;;;;4961777;28;20107;-85
2021/07/12 03:34:29;;;;;;;14.50;11.93;;;16.40;99.90;;;;;;4969627;28;20475;-85
2021/07/12 03:37:00;;;;;;;16.60;12.75;;;16.40;99.90;;;;;;4965016;28;20057;-85
2021/07/12 03:39:29;;;;;;;15.20;13.70;;;16.40;99.90;;;;;;4952104;28;20055;-85
2021/07/12 03:41:57;;;;;;;18.00;15.88;;;16.40;99.90;;;;;;4964662;28;20050;-85
2021/07/12 03:44:26;;;;;;;14.55;13.05;;;16.40;99.90;;;;;;4951247;28;20061;-85
2021/07/12 03:46:53;;;;;;;12.50;11.30;;;16.50;99.90;;;;;;4966137;28;20082;-85
2021/07/12 03:49:22;;;;;;;12.10;11.00;;;16.50;99.90;;;;;;4969286;28;20121;-85
2021/07/12 03:51:53;;;;;;;11.15;10.02;;;16.60;99.90;;;;;;4950284;28;20065;-85
2021/07/12 03:54:20;;;;;;;13.05;11.57;;;16.60;99.90;;;;;;4949568;28;20071;-85
2021/07/12 03:56:47;;;;;;;11.88;10.68;;;16.60;99.90;;;;;;4950422;28;20073;-85
2021/07/12 03:59:15;;;;;;;12.65;11.23;;;16.60;99.90;;;;;;4950364;28;20117;-85
2021/07/12 04:01:43;;;;;;;13.27;11.95;;;16.70;99.90;;;;;;4963819;28;20066;-85
2021/07/12 04:04:10;;;;;;;12.93;11.65;;;16.70;99.90;;;;;;4949175;28;22180;-85
2021/07/12 04:06:37;;;;;;;14.02;11.43;;;16.80;99.90;;;;;;4967671;28;20053;-85
2021/07/12 04:09:04;;;;;;;12.20;11.07;;;16.80;99.90;;;;;;4966677;28;20047;-85
2021/07/12 04:11:34;;;;;;;12.60;10.23;;;16.90;99.90;;;;;;4965942;28;20047;-85
2021/07/12 04:14:02;;;;;;;10.30;9.17;;;16.80;99.90;;;;;;4962816;28;20097;-85
2021/07/12 04:16:29;;;;;;;11.38;8.95;;;16.90;99.90;;;;;;4965123;28;20071;-85
2021/07/12 04:18:56;;;;;;;12.48;10.20;;;16.90;99.90;;;;;;4966662;28;20077;-85
2021/07/12 04:21:24;;;;;;;9.18;8.27;;;16.90;99.90;;;;;;4965615;28;20045;-85
2021/07/12 04:23:51;;;;;;;10.38;9.38;;;17.00;99.90;;;;;;4966915;28;20049;-85
2021/07/12 04:26:18;;;;;;;10.40;8.45;;;17.00;99.90;;;;;;4965903;28;20428;-85
2021/07/12 04:28:45;;;;;;;9.77;8.82;;;17.10;99.90;;;;;;4955900;28;20397;-85
2021/07/12 04:31:13;;;;;;;8.88;8.07;;;17.10;99.90;;;;;;4980457;28;20428;-85
2021/07/12 04:33:40;;;;;;;11.80;8.82;;;17.10;99.90;;;;;;4966170;28;20137;-85
2021/07/12 04:36:07;;;;;;;13.25;9.30;;;17.10;99.90;;;;;;4948879;28;20042;-85
2021/07/12 04:38:35;;;;;;;12.30;9.73;;;17.20;99.90;;;;;;4966171;28;20043;-85
2021/07/12 04:41:02;;;;;;;14.82;10.38;;;17.30;99.90;;;;;;4981121;28;20074;-85
2021/07/12 04:43:30;;;;;;;10.02;8.85;;;17.40;99.90;;;;;;4945161;28;20492;-85
2021/07/12 04:45:57;;;;;;;10.48;9.45;;;17.40;99.90;;;;;;4966595;28;20101;-85
2021/07/12 04:48:24;;;;;;;9.27;8.55;;;17.50;99.90;;;;;;4965642;28;20080;-85
2021/07/12 04:50:51;;;;;;;9.68;8.88;;;17.50;99.90;;;;;;4967381;28;20038;-85
2021/07/12 04:53:18;;;;;;;10.73;9.57;;;17.60;99.90;;;;;;4963842;28;20673;-85
2021/07/12 04:55:45;;;;;;;9.02;8.20;;;17.60;99.90;;;;;;4967351;28;20053;-85
2021/07/12 04:58:12;;;;;;;16.05;10.25;;;17.70;99.90;;;;;;4964367;28;20054;-85
2021/07/12 05:00:39;;;;;;;9.73;8.88;;;17.80;99.90;;;;;;4950011;28;20055;-85
2021/07/12 05:03:06;;;;;;;9.77;8.77;;;17.90;99.90;;;;;;4982716;28;20050;-85
2021/07/12 05:05:33;;;;;;;8.57;7.78;;;17.90;99.90;;;;;;4967010;28;20078;-85
2021/07/12 05:08:00;;;;;;;9.55;8.45;;;18.00;99.90;;;;;;4946170;28;20392;-85
2021/07/12 05:10:27;;;;;;;8.77;7.95;;;18.10;99.90;;;;;;4982772;28;20058;-85
2021/07/12 05:12:55;;;;;;;8.50;7.70;;;18.20;99.90;;;;;;4965444;28;20042;-85
2021/07/12 05:15:22;;;;;;;8.35;7.57;;;18.30;99.90;;;;;;4964331;28;20073;-85
2021/07/12 05:17:49;;;;;;;9.60;7.97;;;18.40;99.90;;;;;;4965718;28;20774;-85
2021/07/12 05:20:16;;;;;;;8.02;7.25;;;18.50;99.90;;;;;;4963543;28;20077;-85
2021/07/12 05:22:43;;;;;;;8.45;7.60;;;18.60;99.90;;;;;;4965678;28;20050;-85
2021/07/12 05:25:11;;;;;;;8.93;8.00;;;18.60;99.90;;;;;;4966957;28;20342;-85
2021/07/12 05:27:38;;;;;;;8.88;7.97;;;18.70;99.90;;;;;;4965575;28;20050;-85
2021/07/12 05:30:07;;;;;;;7.20;6.47;;;18.80;99.90;;;;;;4986563;28;20057;-85
2021/07/12 05:32:34;;;;;;;7.75;7.03;;;18.80;99.90;;;;;;4964315;28;20500;-85
2021/07/12 05:35:01;;;;;;;6.95;6.35;;;19.00;99.90;;;;;;4965548;28;20043;-86
2021/07/12 05:37:28;;;;;;;7.43;6.13;;;19.00;99.90;;;;;;4950387;28;20039;-85
2021/07/12 05:39:55;;;;;;;5.32;4.93;;;19.00;99.90;;;;;;4978027;28;20381;-86
2021/07/12 05:42:23;;;;;;;5.43;4.93;;;19.10;99.90;;;;;;4967078;28;20047;-85
2021/07/12 05:44:50;;;;;;;5.53;5.03;;;19.10;99.90;;;;;;4967017;28;20053;-85
2021/07/12 05:47:18;;;;;;;7.45;6.10;;;19.20;99.90;;;;;;4965673;28;20054;-86
2021/07/12 05:49:45;;;;;;;5.35;4.93;;;19.20;99.90;;;;;;4963816;28;20497;-85
2021/07/12 05:52:12;;;;;;;6.90;5.00;;;19.30;99.90;;;;;;4979247;28;20413;-85
2021/07/12 05:54:39;;;;;;;5.97;5.40;;;19.40;99.90;;;;;;4962990;28;20039;-86
2021/07/12 05:57:06;;;;;;;4.55;4.15;;;19.50;99.90;;;;;;4951174;28;20042;-86
2021/07/12 05:59:33;;;;;;;4.72;4.25;;;19.60;99.90;;;;;;4965096;28;20054;-86
2021/07/12 06:02:00;;;;;;;5.88;5.28;;;19.60;99.90;;;;;;4963040;28;20121;-86
2021/07/12 06:04:27;;;;;;;6.15;5.60;;;19.60;99.90;;;;;;4965051;28;20055;-86
2021/07/12 06:06:54;;;;;;;4.72;4.32;;;19.60;99.90;;;;;;4963571;28;20491;-85
2021/07/12 06:09:22;;;;;;;5.80;4.32;;;19.70;99.90;;;;;;4964733;28;20114;-85
2021/07/12 06:11:49;;;;;;;5.05;4.32;;;19.80;99.90;;;;;;4963264;28;20058;-86
2021/07/12 06:14:16;;;;;;;7.15;6.03;;;19.90;99.90;;;;;;4965699;28;20511;-86
2021/07/12 06:16:43;;;;;;;4.25;3.78;;;19.90;99.90;;;;;;4965932;28;20477;-86
2021/07/12 06:19:13;;;;;;;5.07;4.40;;;20.00;99.90;;;;;;4965552;28;20055;-86
2021/07/12 06:21:40;;;;;;;5.50;4.75;;;20.00;99.90;;;;;;4963257;28;20108;-86
2021/07/12 06:24:07;;;;;;;6.88;4.95;;;20.10;99.90;;;;;;4963509;28;20083;-86
2021/07/12 06:26:34;;;;;;;4.20;3.88;;;20.10;99.90;;;;;;4965254;28;20097;-85
2021/07/12 06:29:01;;;;;;;5.72;5.13;;;20.20;99.90;;;;;;4964988;28;20078;-85
2021/07/12 06:31:28;;;;;;;5.78;5.15;;;20.20;99.90;;;;;;4965402;28;20107;-85
2021/07/12 06:33:57;;;;;;;5.70;5.20;;;20.30;99.90;;;;;;4963484;28;20441;-86
2021/07/12 06:36:24;;;;;;;4.78;4.20;;;20.30;99.90;;;;;;4963736;28;20055;-86
2021/07/12 06:38:51;;;;;;;5.93;5.43;;;20.40;99.90;;;;;;4948382;28;20050;-85
2021/07/12 06:41:18;;;;;;;6.03;5.13;;;20.40;99.90;;;;;;4965857;28;20035;-86
2021/07/12 06:43:45;;;;;;;5.70;5.13;;;20.40;99.90;;;;;;4968770;28;20047;-86
2021/07/12 06:46:14;;;;;;;5.22;4.50;;;20.40;99.90;;;;;;4966777;28;20740;-86
2021/07/12 06:48:43;;;;;;;8.98;6.15;;;20.30;99.90;;;;;;4983408;28;20066;-86
2021/07/12 06:51:15;;;;;;;8.07;4.90;;;20.40;99.90;;;;;;4969166;28;20080;-86
2021/07/12 06:53:42;;;;;;;5.45;4.75;;;20.30;99.90;;;;;;4983396;28;20043;-86
2021/07/12 06:56:09;;;;;;;5.50;5.07;;;20.30;99.90;;;;;;4968543;28;20097;-86
2021/07/12 06:58:36;;;;;;;5.93;5.43;;;20.20;99.90;;;;;;4964536;28;20089;-86
2021/07/12 07:01:03;;;;;;;6.03;5.53;;;20.20;99.90;;;;;;4966386;28;20082;-86
2021/07/12 07:03:32;;;;;;;7.53;6.85;;;20.20;99.90;;;;;;4987717;28;20439;-86
2021/07/12 07:05:59;;;;;;;5.53;5.07;;;20.20;99.90;;;;;;4982652;28;20043;-86
2021/07/12 07:08:32;;;;;;;5.32;4.90;;;20.30;99.90;;;;;;4951679;28;20065;-86
2021/07/12 07:10:59;;;;;;;5.20;4.70;;;20.40;99.90;;;;;;4968465;28;20055;-86
2021/07/12 07:13:27;;;;;;;5.32;4.82;;;20.40;99.90;;;;;;4952159;28;20046;-86
2021/07/12 07:15:56;;;;;;;6.40;4.78;;;20.40;99.90;;;;;;4965585;28;20059;-86
2021/07/12 07:18:24;;;;;;;5.35;4.95;;;20.50;99.90;;;;;;4969229;28;20054;-86
2021/07/12 07:20:51;;;;;;;6.00;5.05;;;20.70;99.90;;;;;;4969380;28;20082;-86
2021/07/12 07:23:18;;;;;;;5.13;4.63;;;20.70;99.90;;;;;;4968816;28;20469;-86
2021/07/12 07:25:45;;;;;;;5.65;4.53;;;20.70;99.90;;;;;;4968467;28;20073;-86
2021/07/12 07:28:12;;;;;;;5.03;4.63;;;20.80;99.90;;;;;;4967752;28;20054;-86
2021/07/12 07:30:40;;;;;;;5.40;4.72;;;20.80;99.90;;;;;;4966825;28;20735;-86
2021/07/12 07:33:07;;;;;;;5.97;5.18;;;20.80;99.90;;;;;;4983961;28;20145;-86
2021/07/12 07:35:34;;;;;;;7.55;5.40;;;20.70;99.90;;;;;;4969582;28;20109;-86
2021/07/12 07:38:01;;;;;;;5.13;4.72;;;20.70;99.90;;;;;;4963406;28;20073;-86
2021/07/12 07:40:29;;;;;;;6.28;4.75;;;20.60;99.90;;;;;;4951752;28;20132;-86
2021/07/12 07:42:56;;;;;;;6.18;5.78;;;20.50;99.90;;;;;;4954248;28;20157;-85
2021/07/12 07:45:22;;;;;;;6.18;5.40;;;20.50;99.90;;;;;;4982080;28;20117;-86
2021/07/12 07:47:49;;;;;;;5.03;4.63;;;20.60;99.90;;;;;;4967345;28;20070;-86
2021/07/12 07:50:20;;;;;;;7.80;5.03;;;20.50;99.90;;;;;;4966195;28;20150;-85
2021/07/12 07:52:47;;;;;;;6.03;5.55;;;20.50;99.90;;;;;;4966116;28;20061;-86
2021/07/12 07:55:15;;;;;;;6.47;5.78;;;20.50;99.90;;;;;;4966561;28;20538;-86
2021/07/12 07:57:42;;;;;;;5.65;4.63;;;20.50;99.90;;;;;;4967008;28;20070;-86
2021/07/12 08:00:13;;;;;;;5.43;4.90;;;20.50;99.90;;;;;;4967056;28;20055;-86
2021/07/12 08:02:41;;;;;;;6.28;5.78;;;20.60;99.90;;;;;;4966403;28;20126;-85
2021/07/12 08:05:09;;;;;;;6.70;6.18;;;20.60;99.90;;;;;;4965014;28;20137;-86
2021/07/12 08:07:36;;;;;;;9.85;7.10;;;20.70;99.90;;;;;;4947668;28;20031;-86
2021/07/12 08:10:05;;;;;;;6.05;5.32;;;20.70;99.90;;;;;;4963000;28;20047;-85
2021/07/12 08:12:32;;;;;;;5.63;5.15;;;20.70;99.90;;;;;;4965949;28;20051;-86
2021/07/12 08:14:59;;;;;;;7.45;6.85;;;20.70;99.90;;;;;;4984223;28;20049;-86
2021/07/12 08:17:26;;;;;;;7.85;7.15;;;20.90;99.90;;;;;;4982281;28;20043;-86
2021/07/12 08:19:53;;;;;;;7.03;6.43;;;21.00;99.90;;;;;;4966686;28;20720;-86
2021/07/12 08:22:40;;;;;;;8.23;7.53;;;21.10;99.90;;;;;;4966915;28;20086;-86
2021/07/12 08:25:09;;;;;;;10.05;9.02;;;21.20;99.90;;;;;;4966901;28;20049;-86
2021/07/12 08:27:37;;;;;;;9.95;9.25;;;21.10;99.90;;;;;;4963450;28;20047;-86
2021/07/12 08:30:06;;;;;;;7.75;7.05;;;21.10;99.90;;;;;;4963565;28;20488;-86
2021/07/12 08:32:33;;;;;;;6.73;6.23;;;20.90;99.90;;;;;;4967481;28;20051;-86
2021/07/12 08:35:00;;;;;;;8.23;5.03;;;21.00;99.90;;;;;;4970538;28;20043;-86
2021/07/12 08:37:27;;;;;;;5.75;5.35;;;21.00;99.90;;;;;;4983369;28;20042;-86
2021/07/12 08:39:54;;;;;;;4.72;3.97;;;20.70;99.90;;;;;;4979225;28;20086;-86
2021/07/12 08:42:21;;;;;;;6.65;4.90;;;20.70;99.90;;;;;;4969649;28;20035;-86
2021/07/12 08:44:48;;;;;;;4.78;4.25;;;20.80;99.90;;;;;;4954066;28;20050;-86
2021/07/12 08:47:15;;;;;;;4.72;4.32;;;20.90;99.90;;;;;;4969420;28;20050;-86
2021/07/12 08:49:42;;;;;;;5.57;4.57;;;20.90;99.90;;;;;;4967890;28;20046;-86
2021/07/12 08:52:09;;;;;;;4.07;3.70;;;21.00;99.90;;;;;;4964039;28;20415;-86
2021/07/12 08:54:38;;;;;;;4.28;3.97;;;21.00;99.90;;;;;;4968850;28;20547;-86
2021/07/12 08:57:05;;;;;;;4.53;4.15;;;21.00;99.90;;;;;;4982454;28;20054;-86
2021/07/12 08:59:39;;;;;;;4.60;4.20;;;21.20;99.90;;;;;;4965004;28;20444;-86
2021/07/12 09:02:18;;;;;;;4.57;3.90;;;21.30;99.90;;;;;;4949015;28;20042;-86
2021/07/12 09:04:50;;;;;;;5.18;3.90;;;21.50;99.90;;;;;;4964936;28;20054;-86
2021/07/12 09:07:23;;;;;;;3.63;3.42;;;21.70;99.90;;;;;;4983908;28;20715;-86
2021/07/12 09:09:57;;;;;;;4.07;3.78;;;21.90;99.90;;;;;;4966834;28;20412;-86
2021/07/12 09:12:37;;;;;;;4.07;3.58;;;21.90;99.90;;;;;;4948636;28;20058;-86
2021/07/12 09:15:06;;;;;;;7.65;4.93;;;22.00;99.90;;;;;;4967515;28;20040;-86
2021/07/12 09:17:35;;;;;;;3.47;3.28;;;22.10;99.90;;;;;;4966340;28;20043;-86
2021/07/12 09:20:07;;;;;;;3.90;3.60;;;21.80;99.90;;;;;;4967069;28;20049;-86
2021/07/12 09:22:38;;;;;;;3.28;3.00;;;21.70;99.90;;;;;;4982382;28;20051;-86
2021/07/12 09:25:10;;;;;;;4.88;3.58;;;21.70;99.90;;;;;;4959753;28;20127;-86
2021/07/12 09:27:40;;;;;;;4.63;3.47;;;21.70;99.90;;;;;;4968718;28;20042;-86
2021/07/12 09:30:10;;;;;;;3.90;3.27;;;21.70;99.90;;;;;;4971659;28;20105;-86
2021/07/12 09:32:39;;;;;;;4.03;3.63;;;21.70;99.90;;;;;;4967327;28;20280;-86
2021/07/12 09:35:08;;;;;;;3.80;3.58;;;21.60;99.90;;;;;;4964341;28;20039;-86
2021/07/12 09:37:40;;;;;;;4.63;4.32;;;21.60;99.90;;;;;;4965458;28;20062;-86
2021/07/12 09:40:10;;;;;;;2.95;2.75;;;21.80;99.90;;;;;;4962214;28;20047;-87
2021/07/12 09:42:40;;;;;;;3.58;3.35;;;21.80;99.90;;;;;;4986260;28;20039;-85
2021/07/12 09:45:10;;;;;;;3.92;3.63;;;21.70;99.90;;;;;;4966297;28;20440;-86
2021/07/12 09:47:38;;;;;;;3.65;3.38;;;21.80;99.90;;;;;;4950160;28;20140;-85
2021/07/12 09:50:08;;;;;;;2.03;1.92;;;21.90;99.90;;;;;;4965527;28;20043;-86
2021/07/12 09:52:43;;;;;;;3.53;3.00;;;21.90;99.90;;;;;;4965192;28;20049;-86
2021/07/12 09:55:22;;;;;;;4.90;4.03;;;22.00;99.90;;;;;;4979145;28;20043;-86
2021/07/12 09:58:07;;;;;;;2.92;2.67;;;22.00;99.90;;;;;;4965531;28;20039;-86
2021/07/12 10:00:36;;;;;;;5.03;2.65;;;21.90;99.90;;;;;;4964177;28;20065;-85
2021/07/12 10:03:04;;;;;;;3.22;2.92;;;21.90;99.90;;;;;;4966285;28;20047;-86
2021/07/12 10:05:31;;;;;;;3.97;2.95;;;21.90;99.90;;;;;;4967141;28;20050;-86
2021/07/12 10:07:59;;;;;;;4.05;3.75;;;21.90;99.90;;;;;;4965444;28;20047;-86
2021/07/12 10:10:26;;;;;;;3.90;3.53;;;22.10;99.90;;;;;;4984361;28;20716;-86
2021/07/12 10:12:54;;;;;;;3.17;2.88;;;22.20;99.90;;;;;;4934108;28;20054;-86
2021/07/12 10:15:21;;;;;;;3.88;2.72;;;22.20;99.90;;;;;;4969827;28;20057;-85
2021/07/12 10:17:48;;;;;;;4.05;3.75;;;22.30;99.90;;;;;;4980635;28;20062;-86
2021/07/12 10:20:16;;;;;;;3.67;3.38;;;22.30;99.90;;;;;;4971384;28;20049;-85
2021/07/12 10:22:44;;;;;;;3.55;3.25;;;22.40;99.90;;;;;;4973184;28;20039;-86
2021/07/12 10:25:33;;;;;;;3.05;2.85;;;22.50;99.90;;;;;;4954724;28;20067;-86
2021/07/12 10:28:05;;;;;;;4.22;2.83;;;22.40;99.90;;;;;;4970319;28;20098;-86
2021/07/12 10:30:45;;;;;;;3.15;2.95;;;22.30;99.90;;;;;;4970188;28;20521;-86
2021/07/12 10:33:15;;;;;;;3.33;3.03;;;22.50;99.90;;;;;;4967008;28;20477;-86
2021/07/12 10:35:53;;;;;;;3.40;3.20;;;22.50;99.90;;;;;;4967667;28;20051;-86
2021/07/12 10:38:43;;;;;;;2.90;2.70;;;22.50;99.90;;;;;;4968242;28;20401;-85
2021/07/12 10:41:26;;;;;;;3.10;2.67;;;22.60;99.90;;;;;;4971294;28;20604;-87
2021/07/12 10:44:05;;;;;;;2.83;2.60;;;22.60;99.90;;;;;;4969597;28;20137;-86
2021/07/12 10:46:34;;;;;;;2.97;2.78;;;22.60;99.90;;;;;;4970288;28;20240;-86
2021/07/12 10:49:38;;;;;;;3.38;3.08;;;22.70;99.90;;;;;;4951610;28;20061;-86
2021/07/12 10:52:06;;;;;;;4.53;2.75;;;22.60;99.90;;;;;;4968011;28;20419;-86
2021/07/12 10:55:01;;;;;;;3.58;3.28;;;22.70;99.90;;;;;;4982090;28;20126;-86
2021/07/12 10:57:30;;;;;;;3.08;2.88;;;22.50;99.90;;;;;;4983864;28;20130;-86
2021/07/12 11:00:12;;;;;;;3.38;2.88;;;22.70;99.90;;;;;;4969169;28;20030;-85
2021/07/12 11:02:39;;;;;;;4.32;3.17;;;22.80;99.90;;;;;;4970722;28;20034;-86
2021/07/12 11:05:12;;;;;;;3.72;3.33;;;22.70;99.90;;;;;;4950448;28;20046;-85
2021/07/12 11:07:48;;;;;;;3.45;3.15;;;22.90;99.90;;;;;;4952079;28;20042;-85
2021/07/12 11:10:31;;;;;;;5.03;4.63;;;23.00;99.90;;;;;;4966871;28;20536;-86
2021/07/12 11:13:04;;;;;;;3.90;3.58;;;23.00;99.90;;;;;;4968220;28;20054;-86
2021/07/12 11:15:39;;;;;;;3.65;3.35;;;23.10;99.90;;;;;;4985260;28;20035;-86
2021/07/12 11:18:28;;;;;;;3.30;3.00;;;23.20;99.90;;;;;;4967243;28;20350;-86
2021/07/12 11:20:58;;;;;;;3.20;2.97;;;22.80;99.90;;;;;;4966087;28;20369;-85
2021/07/12 11:23:52;;;;;;;3.72;3.15;;;22.60;99.90;;;;;;4969722;28;20208;-86
2021/07/12 11:26:19;;;;;;;3.20;2.90;;;22.60;99.90;;;;;;4968710;28;20070;-86
2021/07/12 11:28:51;;;;;;;3.00;2.80;;;22.60;99.90;;;;;;4981854;28;20055;-85
2021/07/12 11:31:40;;;;;;;3.40;3.10;;;22.70;99.90;;;;;;4970987;28;20514;-86
2021/07/12 11:34:27;;;;;;;3.63;3.35;;;22.80;99.90;;;;;;4969054;28;20043;-86
2021/07/12 11:36:58;;;;;;;3.42;3.13;;;22.50;99.90;;;;;;4967666;28;20129;-85
2021/07/12 11:39:42;;;;;;;6.57;3.58;;;22.30;99.90;;;;;;4968688;28;20468;-85
2021/07/12 11:42:18;;;;;;;3.13;2.92;;;22.40;99.90;;;;;;4967916;28;20039;-85
2021/07/12 11:44:57;;;;;;;3.03;2.83;;;22.60;99.90;;;;;;4968331;28;20138;-85
2021/07/12 11:47:29;;;;;;;5.72;2.80;;;22.70;99.90;;;;;;4960674;28;20380;-85
2021/07/12 11:50:09;;;;;;;4.00;3.00;;;22.60;99.90;;;;;;4968594;28;20712;-85
2021/07/12 11:52:37;;;;;;;5.50;3.33;;;22.70;99.90;;;;;;4967571;28;20058;-87
2021/07/12 11:55:14;;;;;;;3.90;3.65;;;22.80;99.90;;;;;;4984297;28;20085;-86
2021/07/12 11:57:45;;;;;;;3.05;2.75;;;22.90;99.90;;;;;;4987165;28;20061;-85
2021/07/12 12:00:17;;;;;;;3.15;2.85;;;22.80;99.90;;;;;;4965889;28;20058;-86
2021/07/12 12:02:45;;;;;;;2.30;2.17;;;22.90;99.90;;;;;;4968576;28;20476;-86
2021/07/12 12:05:14;;;;;;;10.52;5.00;;;23.00;99.90;;;;;;4974065;28;20059;-86
2021/07/12 12:07:47;;;;;;;10.00;3.03;;;23.10;99.90;;;;;;4968364;28;20171;-85
2021/07/12 12:10:30;;;;;;;2.78;2.58;;;23.10;99.90;;;;;;4966204;28;20126;-85
2021/07/12 12:13:03;;;;;;;3.67;3.35;;;23.20;99.90;;;;;;4971918;28;20054;-86
2021/07/12 12:15:32;;;;;;;2.35;2.20;;;23.40;99.90;;;;;;4953200;28;20130;-86
2021/07/12 12:18:05;;;;;;;3.25;2.75;;;23.40;99.90;;;;;;4950287;28;20051;-85
2021/07/12 12:20:43;;;;;;;2.80;2.60;;;23.30;99.90;;;;;;4984535;28;20105;-86
2021/07/12 12:23:12;;;;;;;3.58;2.75;;;23.30;99.90;;;;;;4968776;28;20043;-85
2021/07/12 12:26:00;;;;;;;2.92;2.72;;;23.40;99.90;;;;;;4951392;28;20124;-86
2021/07/12 12:28:30;;;;;;;3.85;3.55;;;23.60;99.90;;;;;;4971113;28;20051;-85
2021/07/12 12:31:06;;;;;;;3.58;3.33;;;23.70;99.90;;;;;;4989872;28;20130;-86
2021/07/12 12:33:37;;;;;;;3.20;2.45;;;23.70;99.90;;;;;;4969957;28;20132;-84
2021/07/12 12:36:16;;;;;;;2.58;2.38;;;23.80;99.90;;;;;;4988627;28;20061;-86
2021/07/12 12:39:07;;;;;;;2.63;2.42;;;23.90;99.90;;;;;;4969435;28;20039;-85
2021/07/12 12:41:37;;;;;;;3.03;2.83;;;23.70;99.90;;;;;;4954260;28;20158;-85
2021/07/12 12:44:08;;;;;;;3.47;3.17;;;23.70;99.90;;;;;;4964429;28;20046;-86
2021/07/12 12:46:57;;;;;;;3.60;2.95;;;23.80;99.90;;;;;;4967366;28;20053;-85
2021/07/12 12:49:32;;;;;;;2.45;2.25;;;23.90;99.90;;;;;;4956304;28;20039;-86
2021/07/12 12:52:11;;;;;;;3.80;2.85;;;24.10;99.90;;;;;;4962474;28;20043;-86
2021/07/12 12:54:46;;;;;;;3.30;2.42;;;24.30;99.90;;;;;;4968550;28;20042;-86
2021/07/12 12:57:13;;;;;;;7.90;2.97;;;24.10;99.90;;;;;;4968332;28;20039;-85
2021/07/12 12:59:45;;;;;;;2.60;2.40;;;24.10;99.90;;;;;;4985144;28;20039;-86
2021/07/12 13:02:16;;;;;;;2.92;2.67;;;24.10;99.90;;;;;;4967522;28;20049;-86
2021/07/12 13:04:47;;;;;;;3.47;3.17;;;24.10;99.90;;;;;;4954197;28;20050;-86